Time;durP1;ratioP1;P1;durP2;ratioP2;P2;SDS_P1;SDS_P2;PMS_P1;PMS_P2;Temp;Humidity;BMP_temperature;BMP_pressure;BME280_temperature;BME280_humidity;BME280_pressure;Samples;Min_cycle;Max_cycle;Signal;HPM_P1;HPM_P2
2021/03/29 00:00:55;;;;;;;0.70;0.60;;;10.50;96.60;;;11.24;100.00;-20987.75;4995586;28;20440;-73
2021/03/29 00:03:22;;;;;;;0.70;0.60;;;10.50;96.50;;;11.25;100.00;-20988.00;4995218;28;20488;-73
2021/03/29 00:05:49;;;;;;;0.70;0.53;;;10.50;96.20;;;11.34;100.00;-20990.50;4995484;28;20444;-72
2021/03/29 00:08:21;;;;;;;0.70;0.60;;;10.60;95.80;;;11.40;100.00;-20992.16;5003795;28;20800;-73
2021/03/29 00:10:52;;;;;;;1.03;0.80;;;10.60;95.50;;;11.30;100.00;-20989.41;5010114;28;20547;-72
2021/03/29 00:13:20;;;;;;;0.70;0.60;;;10.50;95.70;;;11.28;100.00;-20988.97;4995952;28;20426;-73
2021/03/29 00:15:52;;;;;;;0.70;0.60;;;10.50;95.30;;;11.38;100.00;-20991.59;4995040;28;20520;-73
2021/03/29 00:18:21;;;;;;;0.70;0.60;;;10.60;94.90;;;11.38;100.00;-20991.59;4994817;28;20460;-72
2021/03/29 00:21:04;;;;;;;0.70;0.60;;;10.60;94.80;;;11.35;100.00;-20990.78;4994890;28;20415;-72
2021/03/29 00:23:32;;;;;;;0.70;0.50;;;10.60;94.90;;;11.39;100.00;-20991.88;4995260;28;20419;-73
2021/03/29 00:25:59;;;;;;;0.70;0.50;;;10.60;94.90;;;11.31;100.00;-20989.81;4993526;28;20515;-72
2021/03/29 00:28:26;;;;;;;0.93;0.83;;;10.50;94.80;;;11.33;100.00;-20990.22;4993256;28;20445;-73
2021/03/29 00:30:54;;;;;;;0.70;0.60;;;10.50;94.60;;;11.35;100.00;-20990.91;5006825;28;20475;-73
2021/03/29 00:33:23;;;;;;;1.17;1.07;;;10.50;94.60;;;11.43;100.00;-20992.84;4975487;28;20477;-73
2021/03/29 00:35:53;;;;;;;0.70;0.60;;;10.50;94.50;;;11.34;100.00;-20990.63;4975132;28;20477;-72
2021/03/29 00:38:20;;;;;;;0.70;0.57;;;10.50;94.80;;;11.37;100.00;-20991.31;4975853;28;20865;-72
2021/03/29 00:40:53;;;;;;;0.70;0.60;;;10.50;94.80;;;11.28;100.00;-20988.84;4974642;28;20432;-72
2021/03/29 00:43:24;;;;;;;0.70;0.60;;;10.40;95.20;;;11.25;100.00;-20988.00;4975581;28;20902;-73
2021/03/29 00:45:54;;;;;;;1.00;0.90;;;10.40;94.90;;;11.19;100.00;-20986.50;4975656;28;20449;-73
2021/03/29 00:48:26;;;;;;;0.70;0.60;;;10.40;94.80;;;11.29;100.00;-20989.25;4974536;28;20805;-71
2021/03/29 00:50:59;;;;;;;0.90;0.70;;;10.40;94.60;;;11.21;100.00;-20987.03;4980593;28;20853;-72
2021/03/29 00:53:27;;;;;;;0.70;0.60;;;10.40;94.70;;;11.13;100.00;-20984.97;4993778;28;20436;-71
2021/03/29 00:55:55;;;;;;;0.70;0.50;;;10.40;94.50;;;11.08;100.00;-20983.59;4992799;28;20431;-72
2021/03/29 00:58:25;;;;;;;0.80;0.70;;;10.40;94.60;;;10.96;100.00;-20980.13;4994896;28;20450;-72
2021/03/29 01:00:55;;;;;;;0.70;0.60;;;10.20;94.90;;;10.96;100.00;-20980.28;4995122;28;20915;-71
2021/03/29 01:03:26;;;;;;;0.70;0.60;;;10.20;95.10;;;10.78;100.00;-20975.28;4992953;28;20995;-72
2021/03/29 01:05:59;;;;;;;0.70;0.60;;;10.10;95.60;;;10.72;100.00;-20973.78;4994129;28;20491;-72
2021/03/29 01:08:27;;;;;;;0.70;0.57;;;10.00;96.00;;;10.44;100.00;-20966.16;4992805;28;21449;-71
2021/03/29 01:10:57;;;;;;;0.70;0.60;;;9.80;97.00;;;10.54;100.00;-20968.94;4994381;28;20970;-73
2021/03/29 01:13:25;;;;;;;0.70;0.60;;;9.90;97.30;;;10.42;100.00;-20965.63;5009181;28;20439;-72
2021/03/29 01:15:56;;;;;;;0.70;0.60;;;9.90;97.50;;;10.18;100.00;-20959.09;4994367;28;20502;-72
2021/03/29 01:18:25;;;;;;;0.70;0.60;;;9.60;97.70;;;10.02;100.00;-20567.59;4993983;28;20466;-72
2021/03/29 01:21:14;;;;;;;0.70;0.50;;;9.50;99.30;;;9.78;100.00;-15429.09;4993958;28;20510;-71
2021/03/29 01:23:44;;;;;;;0.70;0.60;;;9.30;99.90;;;9.59;100.00;-4047.22;4994204;28;20416;-72
2021/03/29 01:26:34;;;;;;;0.70;0.60;;;9.10;99.90;;;9.55;100.00;7970.56;5009124;28;20412;-72
2021/03/29 01:29:02;;;;;;;0.70;0.60;;;9.00;99.90;;;9.52;100.00;20532.41;4992511;28;20504;-72
2021/03/29 01:31:30;;;;;;;0.70;0.60;;;8.90;99.90;;;9.41;100.00;31621.69;4992481;28;20474;-72
2021/03/29 01:33:57;;;;;;;0.70;0.60;;;8.90;99.90;;;9.34;100.00;36456.53;4994017;28;20446;-72
2021/03/29 01:36:27;;;;;;;0.90;0.90;;;8.80;99.90;;;9.42;100.00;43252.66;4993561;28;20450;-72
2021/03/29 01:38:55;;;;;;;0.70;0.57;;;8.80;99.90;;;9.21;100.00;45344.00;4993232;28;20461;-72
2021/03/29 01:41:23;;;;;;;0.70;0.70;;;8.70;99.90;;;9.18;100.00;54580.84;4993826;28;20521;-72
2021/03/29 01:43:52;;;;;;;0.70;0.60;;;8.70;99.90;;;9.16;100.00;55322.84;4993591;28;20459;-71
2021/03/29 01:46:20;;;;;;;0.70;0.50;;;8.60;99.90;;;9.03;100.00;60160.78;4978516;28;20439;-71
2021/03/29 01:48:48;;;;;;;0.70;0.60;;;8.60;99.90;;;8.98;100.00;63228.56;4992458;28;20470;-72
2021/03/29 01:51:17;;;;;;;0.70;0.60;;;8.50;99.90;;;9.04;100.00;62248.91;4993363;28;20537;-73
2021/03/29 01:53:45;;;;;;;0.70;0.60;;;8.60;99.90;;;8.93;100.00;62659.41;4993404;28;20466;-72
2021/03/29 01:56:14;;;;;;;0.70;0.60;;;8.60;99.90;;;8.89;100.00;65412.59;4992988;28;20529;-73
2021/03/29 01:58:42;;;;;;;0.70;0.60;;;8.50;99.90;;;8.93;100.00;67183.94;4983595;28;20458;-72
2021/03/29 02:01:12;;;;;;;0.70;0.60;;;8.40;99.90;;;9.07;100.00;63984.38;4993976;28;20515;-71
2021/03/29 02:03:41;;;;;;;0.70;0.60;;;8.40;99.90;;;8.91;100.00;61069.53;4992837;28;20549;-73
2021/03/29 02:06:12;;;;;;;0.70;0.60;;;8.50;99.90;;;8.82;100.00;63982.31;4993540;28;20900;-71
2021/03/29 02:08:42;;;;;;;0.70;0.60;;;8.40;99.90;;;8.78;100.00;66506.66;4993916;28;20426;-72
2021/03/29 02:11:10;;;;;;;0.70;0.60;;;8.40;99.90;;;8.85;100.00;65310.00;4993663;28;20971;-71
2021/03/29 02:13:41;;;;;;;0.80;0.80;;;8.40;99.90;;;8.81;100.00;61140.66;4993546;28;20426;-73
2021/03/29 02:16:13;;;;;;;0.70;0.63;;;8.40;99.90;;;8.75;100.00;58657.44;4994207;28;20415;-71
2021/03/29 02:18:42;;;;;;;0.70;0.60;;;8.30;99.90;;;8.63;100.00;62957.59;4993479;28;20470;-73
2021/03/29 02:21:13;;;;;;;1.80;1.07;;;8.10;99.90;;;8.46;100.00;70741.88;4993659;28;20438;-72
2021/03/29 02:23:42;;;;;;;0.70;0.50;;;8.10;99.90;;;8.63;100.00;77400.78;4993972;28;20446;-71
2021/03/29 02:26:10;;;;;;;1.73;1.10;;;8.10;99.90;;;8.44;100.00;74951.94;4993294;28;20843;-72
2021/03/29 02:28:39;;;;;;;0.70;0.60;;;8.00;99.90;;;8.44;100.00;75368.75;4992462;28;20458;-71
2021/03/29 02:31:07;;;;;;;0.70;0.60;;;8.00;99.90;;;8.32;100.00;75560.94;4993807;28;20500;-72
2021/03/29 02:33:35;;;;;;;0.70;0.50;;;7.90;99.90;;;8.21;100.00;79272.88;4993383;28;20466;-71
2021/03/29 02:36:05;;;;;;;0.70;0.60;;;7.70;99.90;;;8.14;100.00;82225.78;4994148;28;20528;-71
2021/03/29 02:38:32;;;;;;;1.17;1.07;;;7.60;99.90;;;8.00;100.00;86488.53;5004047;28;20451;-72
2021/03/29 02:41:00;;;;;;;0.70;0.60;;;7.50;99.90;;;7.91;100.00;90102.50;4993392;28;20613;-72
2021/03/29 02:43:29;;;;;;;1.30;0.83;;;7.30;99.90;;;7.83;100.00;93721.66;4993041;28;20484;-73
2021/03/29 02:45:59;;;;;;;0.70;0.60;;;7.30;99.90;;;7.87;100.00;97363.16;4993461;28;20841;-71
2021/03/29 02:48:32;;;;;;;0.70;0.60;;;7.30;99.90;;;7.92;100.00;99355.25;4992496;28;20471;-71
2021/03/29 02:51:08;;;;;;;0.70;0.60;;;7.30;99.90;;;7.82;100.00;100992.28;5000219;28;20222;-72
2021/03/29 02:53:38;;;;;;;0.70;0.60;;;7.30;99.90;;;7.80;100.00;102974.91;4992623;28;20511;-73
2021/03/29 02:56:08;;;;;;;0.80;0.80;;;7.30;99.90;;;7.79;100.00;103636.31;4993583;28;20526;-72
2021/03/29 02:58:39;;;;;;;0.70;0.60;;;7.30;99.90;;;7.82;100.00;104634.53;4993145;28;20841;-72
2021/03/29 03:01:09;;;;;;;0.70;0.60;;;7.30;99.90;;;7.88;100.00;104977.69;5002554;28;20444;-71
2021/03/29 03:03:39;;;;;;;0.70;0.60;;;7.30;99.90;;;7.97;100.00;103668.72;5011111;28;20456;-72
2021/03/29 03:06:08;;;;;;;0.70;0.60;;;7.40;99.90;;;7.85;100.00;101991.47;4994256;28;20436;-72
2021/03/29 03:08:36;;;;;;;0.70;0.60;;;7.30;99.90;;;7.82;100.00;101655.13;4995221;28;20989;-72
2021/03/29 03:11:08;;;;;;;0.70;0.60;;;7.30;99.90;;;7.63;100.00;102615.28;4995139;28;20473;-71
2021/03/29 03:13:37;;;;;;;0.70;0.60;;;7.10;99.90;;;7.53;100.00;103921.47;4996316;28;20806;-72
2021/03/29 03:16:06;;;;;;;0.70;0.50;;;7.00;99.90;;;7.46;100.00;106226.78;4994931;28;20452;-72
2021/03/29 03:18:34;;;;;;;0.70;0.60;;;7.00;99.90;;;7.37;100.00;108860.78;4996564;28;20221;-72
2021/03/29 03:21:00;;;;;;;0.70;0.60;;;6.90;99.90;;;7.28;100.00;109838.09;4996153;28;20512;-72
2021/03/29 03:23:28;;;;;;;0.70;0.60;;;6.80;99.90;;;7.26;100.00;111162.38;5010999;28;20436;-71
2021/03/29 03:25:55;;;;;;;0.70;0.50;;;6.80;99.90;;;7.29;100.00;112492.97;4995177;28;20521;-71
2021/03/29 03:28:26;;;;;;;0.70;0.60;;;6.80;99.90;;;7.34;100.00;112171.94;4994943;28;20509;-71
2021/03/29 03:30:56;;;;;;;0.70;0.60;;;6.70;99.90;;;7.23;100.00;111487.25;4994828;28;20218;-73
2021/03/29 03:33:27;;;;;;;0.70;0.60;;;6.70;99.90;;;7.22;100.00;111816.94;4996144;28;20452;-72
2021/03/29 03:35:56;;;;;;;0.70;0.60;;;6.80;99.90;;;7.19;100.00;112475.41;4995797;28;20176;-71
2021/03/29 03:38:28;;;;;;;0.70;0.60;;;6.80;99.90;;;7.27;100.00;112821.81;4995641;28;20242;-72
2021/03/29 03:40:59;;;;;;;0.70;0.60;;;6.90;99.90;;;7.22;100.00;111817.91;4995503;28;20192;-72
2021/03/29 03:43:30;;;;;;;0.70;0.60;;;6.80;99.90;;;7.25;100.00;110497.31;4994761;28;20285;-72
2021/03/29 03:46:02;;;;;;;0.70;0.60;;;6.90;99.90;;;7.45;100.00;107881.56;4994878;28;20444;-72
2021/03/29 03:48:31;;;;;;;0.70;0.60;;;7.10;99.90;;;7.44;100.00;105229.56;4995821;28;20625;-71
2021/03/29 03:50:59;;;;;;;0.70;0.60;;;7.10;99.90;;;7.58;100.00;100621.13;4994850;28;20213;-72
2021/03/29 03:53:29;;;;;;;0.70;0.60;;;7.20;99.90;;;7.49;100.00;92347.00;4996011;28;20293;-72
2021/03/29 03:55:58;;;;;;;0.70;0.60;;;7.10;99.90;;;7.61;100.00;88738.06;4995880;28;20184;-72
2021/03/29 03:58:28;;;;;;;0.70;0.60;;;7.10;99.90;;;7.68;100.00;78871.25;4995954;28;20201;-73
2021/03/29 04:00:56;;;;;;;0.70;0.50;;;7.30;99.90;;;7.71;100.00;71322.56;4993610;28;20959;-72
2021/03/29 04:03:23;;;;;;;0.70;0.60;;;7.30;99.90;;;7.79;100.00;61216.50;4995532;28;20535;-72
2021/03/29 04:05:51;;;;;;;0.70;0.60;;;7.30;99.90;;;7.69;100.00;56523.13;4995543;28;20418;-71
2021/03/29 04:08:39;;;;;;;0.70;0.60;;;7.30;99.90;;;7.57;100.00;52116.13;4995460;28;20632;-72
2021/03/29 04:11:08;;;;;;;0.70;0.50;;;7.20;99.90;;;7.66;100.00;49679.06;5010566;28;20499;-73
2021/03/29 04:13:35;;;;;;;0.70;0.60;;;7.20;99.90;;;7.82;100.00;42979.91;5010755;28;20435;-72
2021/03/29 04:16:05;;;;;;;0.70;0.60;;;7.30;99.90;;;7.85;100.00;36100.06;4994523;28;20507;-74
2021/03/29 04:18:33;;;;;;;0.70;0.60;;;7.50;99.90;;;7.81;100.00;28556.50;4995177;28;20210;-72
2021/03/29 04:21:00;;;;;;;0.70;0.60;;;7.40;99.90;;;7.75;100.00;25674.94;4995105;28;20418;-73
2021/03/29 04:23:30;;;;;;;0.80;0.70;;;7.30;99.90;;;7.71;100.00;26843.88;4995055;28;20185;-71
2021/03/29 04:25:59;;;;;;;0.70;0.60;;;7.20;99.90;;;7.68;100.00;29668.44;4995220;28;20419;-71
2021/03/29 04:28:26;;;;;;;0.70;0.60;;;7.30;99.90;;;7.65;100.00;31743.03;4994862;28;20837;-71
2021/03/29 04:30:53;;;;;;;0.70;0.60;;;7.30;99.90;;;7.61;100.00;30160.69;4993730;28;20209;-71
2021/03/29 04:33:22;;;;;;;9.02;2.35;;;7.30;99.90;;;7.65;100.00;31125.09;4995060;28;20276;-73
2021/03/29 04:35:51;;;;;;;0.70;0.60;;;7.30;99.90;;;7.58;100.00;34034.16;4994777;28;20213;-72
2021/03/29 04:38:18;;;;;;;0.70;0.60;;;7.20;99.90;;;7.55;100.00;35127.53;4994892;28;20178;-72
2021/03/29 04:40:45;;;;;;;0.70;0.60;;;7.20;99.90;;;7.61;100.00;34910.84;4993693;28;20437;-73
2021/03/29 04:43:13;;;;;;;1.08;0.85;;;7.20;99.90;;;7.52;100.00;33906.53;4994886;28;20238;-73
2021/03/29 04:45:40;;;;;;;0.70;0.60;;;7.10;99.90;;;7.33;100.00;38548.69;4993683;28;20548;-70
2021/03/29 04:48:08;;;;;;;0.70;0.60;;;6.90;99.90;;;7.20;100.00;44845.56;4993649;28;20480;-71
2021/03/29 04:50:35;;;;;;;0.80;0.70;;;6.70;99.90;;;7.10;100.00;50593.97;4994248;28;20527;-71
2021/03/29 04:53:04;;;;;;;0.70;0.60;;;6.70;99.90;;;7.18;100.00;60728.78;5009545;28;20470;-73
2021/03/29 04:55:31;;;;;;;0.80;0.80;;;6.70;99.90;;;7.30;100.00;63284.59;5009749;28;20248;-73
2021/03/29 04:57:58;;;;;;;0.70;0.60;;;6.80;99.90;;;7.24;100.00;66023.53;4995011;28;20438;-73
2021/03/29 05:00:27;;;;;;;0.70;0.60;;;6.80;99.90;;;7.27;100.00;66681.72;4994555;28;20185;-71
2021/03/29 05:02:54;;;;;;;0.70;0.60;;;6.90;99.90;;;7.26;100.00;65371.91;4994191;28;20549;-72
2021/03/29 05:05:21;;;;;;;0.70;0.60;;;6.80;99.90;;;7.37;100.00;64729.47;4994005;28;20545;-71
2021/03/29 05:07:48;;;;;;;0.70;0.60;;;7.00;99.90;;;7.64;100.00;55646.09;4994253;28;20196;-72
2021/03/29 05:10:15;;;;;;;3.08;1.55;;;7.20;99.90;;;7.66;100.00;44335.75;4994680;28;20422;-72
2021/03/29 05:12:44;;;;;;;0.70;0.60;;;7.10;99.90;;;7.55;100.00;40033.81;4994426;28;20194;-71
2021/03/29 05:15:13;;;;;;;0.70;0.60;;;7.10;99.90;;;7.49;100.00;39689.28;4992265;28;20452;-72
2021/03/29 05:17:41;;;;;;;0.70;0.60;;;7.10;99.90;;;7.49;100.00;39417.72;4993905;28;20283;-72
2021/03/29 05:20:09;;;;;;;0.70;0.60;;;7.10;99.90;;;7.40;100.00;38155.34;4993997;28;20413;-72
2021/03/29 05:22:37;;;;;;;0.80;0.73;;;7.00;99.90;;;7.42;100.00;39872.03;4993644;28;20664;-71
2021/03/29 05:25:06;;;;;;;0.70;0.60;;;7.10;99.90;;;7.50;100.00;41431.69;4992962;28;20180;-72
2021/03/29 05:27:33;;;;;;;0.70;0.60;;;7.00;99.90;;;7.61;100.00;37500.16;4993280;28;20188;-72
2021/03/29 05:30:00;;;;;;;0.70;0.50;;;7.10;99.90;;;7.59;100.00;30843.38;5003922;28;20203;-71
2021/03/29 05:32:28;;;;;;;0.70;0.60;;;7.20;99.90;;;7.86;100.00;29313.59;5012455;28;20278;-72
2021/03/29 05:35:00;;;;;;;0.70;0.60;;;7.30;99.90;;;7.88;100.00;22763.69;5007813;28;20456;-72
2021/03/29 05:37:29;;;;;;;0.70;0.60;;;7.40;99.90;;;7.97;100.00;15733.75;4993523;28;20575;-72
2021/03/29 05:39:58;;;;;;;0.70;0.60;;;7.50;99.90;;;8.06;100.00;6376.84;4993823;28;20425;-73
2021/03/29 05:42:30;;;;;;;0.70;0.60;;;7.60;99.90;;;8.21;100.00;3165.81;4996251;28;20246;-71
2021/03/29 05:45:04;;;;;;;0.70;0.57;;;7.70;99.90;;;8.29;100.00;-1723.81;4994385;28;20436;-71
2021/03/29 05:47:31;;;;;;;0.70;0.57;;;7.70;99.90;;;8.34;100.00;-5183.25;4993891;28;20419;-72
2021/03/29 05:50:04;;;;;;;0.70;0.60;;;7.70;99.90;;;8.31;100.00;-6702.31;4993843;28;20500;-73
2021/03/29 05:52:31;;;;;;;1.00;1.00;;;7.70;99.90;;;8.30;100.00;-8185.53;4998167;28;20461;-74
2021/03/29 05:54:59;;;;;;;0.70;0.60;;;7.70;99.90;;;8.37;100.00;-8233.63;4995005;28;20852;-71
2021/03/29 05:57:37;;;;;;;0.70;0.60;;;7.70;99.90;;;8.60;100.00;-11371.41;4993545;28;20498;-72
2021/03/29 06:00:38;;;;;;;0.70;0.60;;;7.90;99.90;;;8.60;100.00;-15590.13;4973320;28;20432;-73
2021/03/29 06:03:28;;;;;;;0.70;0.60;;;8.00;99.90;;;8.86;100.00;-19627.41;4973980;28;20470;-73
2021/03/29 06:06:00;;;;;;;0.70;0.60;;;8.20;99.90;;;9.17;100.00;-20931.81;4979120;28;20450;-71
2021/03/29 06:08:28;;;;;;;0.80;0.70;;;8.50;99.90;;;9.41;100.00;-20938.34;4998910;28;20437;-71
2021/03/29 06:10:58;;;;;;;0.70;0.60;;;9.00;99.90;;;9.76;100.00;-20947.63;4993398;28;20550;-71
2021/03/29 06:13:28;;;;;;;0.70;0.60;;;9.30;99.90;;;9.87;100.00;-20950.66;4994060;28;20729;-72
2021/03/29 06:16:06;;;;;;;0.70;0.60;;;9.40;99.90;;;10.17;100.00;-20958.81;4994203;28;20433;-71
2021/03/29 06:18:35;;;;;;;0.70;0.50;;;9.80;99.90;;;10.24;100.00;-20960.63;4991994;28;20455;-72
2021/03/29 06:21:09;;;;;;;3.67;0.90;;;9.60;99.90;;;10.33;100.00;-20963.13;4992723;28;20433;-72
2021/03/29 06:23:40;;;;;;;0.70;0.60;;;9.40;99.90;;;10.25;100.00;-20960.91;4995623;28;20415;-72
2021/03/29 06:26:19;;;;;;;0.70;0.60;;;9.20;99.90;;;10.39;100.00;-20964.78;5011270;28;20450;-72
2021/03/29 06:28:47;;;;;;;0.70;0.60;;;9.60;99.90;;;10.77;100.00;-20975.03;5008820;28;20464;-72
2021/03/29 06:31:27;;;;;;;0.70;0.60;;;9.70;99.90;;;11.02;100.00;-20981.94;4993292;28;20460;-72
2021/03/29 06:33:56;;;;;;;0.70;0.50;;;10.00;99.90;;;10.83;100.00;-20976.81;5006970;28;20482;-72
2021/03/29 06:36:34;;;;;;;0.70;0.60;;;9.80;99.90;;;10.70;100.00;-20973.09;4992494;28;20964;-73
2021/03/29 06:39:15;;;;;;;0.70;0.60;;;9.60;99.90;;;10.65;100.00;-20971.84;5015378;28;20436;-71
2021/03/29 06:41:52;;;;;;;0.70;0.53;;;9.50;99.90;;;10.58;100.00;-20970.03;5005893;28;20438;-72
2021/03/29 06:44:27;;;;;;;0.70;0.60;;;9.50;99.90;;;10.68;100.00;-20972.66;5004907;28;20448;-71
2021/03/29 06:47:12;;;;;;;0.70;0.50;;;9.70;99.90;;;10.61;100.00;-20970.88;4999217;28;20903;-71
2021/03/29 06:49:44;;;;;;;0.70;0.67;;;9.60;99.90;;;10.64;100.00;-20971.69;4999688;28;20461;-73
2021/03/29 06:52:23;;;;;;;0.70;0.60;;;9.60;99.90;;;10.69;100.00;-20972.81;4997165;28;20483;-72
2021/03/29 06:54:51;;;;;;;0.70;0.60;;;9.80;99.90;;;10.90;100.00;-20978.63;5006654;28;20445;-72
2021/03/29 06:57:29;;;;;;;0.70;0.53;;;10.00;99.90;;;11.46;100.00;-20993.81;5007868;28;20574;-72
2021/03/29 06:59:57;;;;;;;0.70;0.60;;;10.30;99.90;;;11.88;100.00;-21005.16;4995786;28;20444;-73
2021/03/29 07:02:41;;;;;;;0.70;0.60;;;10.50;99.90;;;12.22;100.00;-21014.25;4996474;28;20415;-72
2021/03/29 07:05:10;;;;;;;0.80;0.70;;;10.70;99.90;;;12.33;100.00;-21017.28;4997355;28;20926;-73
2021/03/29 07:07:39;;;;;;;0.80;0.70;;;10.70;99.90;;;12.36;100.00;-21018.13;5000677;28;20446;-72
2021/03/29 07:10:09;;;;;;;0.70;0.60;;;10.90;98.70;;;12.59;100.00;-21024.34;5011449;28;20473;-72
2021/03/29 07:12:42;;;;;;;0.80;0.70;;;11.20;97.80;;;12.98;100.00;-21034.81;4997884;28;20892;-71
2021/03/29 07:15:12;;;;;;;0.70;0.60;;;11.50;95.90;;;13.44;100.00;-21047.38;4996056;28;20492;-72
2021/03/29 07:17:41;;;;;;;0.70;0.60;;;11.60;94.80;;;13.53;100.00;-21049.72;4996937;28;20475;-72
2021/03/29 07:20:12;;;;;;;1.00;0.87;;;11.70;94.10;;;14.17;100.00;-21066.94;4996486;28;20448;-71
2021/03/29 07:22:42;;;;;;;0.80;0.80;;;11.80;93.60;;;14.34;100.00;-21071.63;5010972;28;20437;-73
2021/03/29 07:25:13;;;;;;;0.70;0.60;;;12.20;92.40;;;14.08;100.00;-21064.47;5016125;28;20522;-72
2021/03/29 07:27:47;;;;;;;0.70;0.60;;;12.70;92.30;;;14.43;100.00;-21074.09;5013679;28;20439;-72
2021/03/29 07:30:16;;;;;;;0.70;0.60;;;13.00;88.70;;;14.49;100.00;-21075.75;4996134;28;20511;-72
2021/03/29 07:32:54;;;;;;;0.70;0.63;;;12.90;85.60;;;14.60;100.00;-21078.50;4996577;28;20463;-71
2021/03/29 07:35:22;;;;;;;0.70;0.60;;;13.00;85.50;;;14.41;100.00;-21073.53;4996309;28;20422;-72
2021/03/29 07:37:57;;;;;;;0.70;0.60;;;13.10;85.10;;;14.53;100.00;-21076.72;4996105;28;20432;-72
2021/03/29 07:40:46;;;;;;;0.90;0.80;;;13.20;83.40;;;15.26;100.00;-21096.25;4996375;28;21006;-71
2021/03/29 07:43:16;;;;;;;0.77;0.60;;;13.30;83.30;;;15.55;100.00;-21104.09;4996223;28;20420;-72
2021/03/29 07:45:51;;;;;;;0.70;0.60;;;13.40;79.30;;;15.59;100.00;-21105.19;4996257;28;20433;-73
2021/03/29 07:48:37;;;;;;;0.70;0.60;;;13.70;77.00;;;15.47;100.00;-21102.03;4995758;28;20447;-72
2021/03/29 07:51:09;;;;;;;0.70;0.60;;;13.70;77.40;;;15.88;100.00;-21113.03;4995833;28;20512;-72
2021/03/29 07:53:47;;;;;;;0.80;0.70;;;14.00;75.10;;;15.33;100.00;-21098.31;4995254;28;20423;-73
2021/03/29 07:56:45;;;;;;;0.80;0.60;;;13.90;74.70;;;15.75;100.00;-21109.59;4995147;28;20470;-73
2021/03/29 07:59:12;;;;;;;0.80;0.70;;;13.80;73.20;;;15.80;100.00;-21110.97;4995278;28;20450;-72
2021/03/29 08:02:05;;;;;;;0.70;0.70;;;13.80;74.50;;;16.75;100.00;-21136.50;4994723;28;20445;-72
2021/03/29 08:05:02;;;;;;;0.70;0.60;;;14.20;75.30;;;17.61;100.00;-21159.56;4969843;28;20466;-72
2021/03/29 08:07:39;;;;;;;1.30;0.90;;;14.90;67.70;;;18.40;100.00;-21180.66;4995499;28;20447;-73
2021/03/29 08:10:10;;;;;;;0.70;0.60;;;15.50;64.10;;;19.46;100.00;-21209.25;4994197;28;20466;-73
2021/03/29 08:12:58;;;;;;;0.70;0.60;;;15.90;59.90;;;19.15;100.00;-21200.91;4995249;28;20789;-72
2021/03/29 08:15:59;;;;;;;0.73;0.60;;;16.30;58.30;;;19.05;100.00;-21198.19;4996710;28;20486;-72
2021/03/29 08:18:26;;;;;;;0.70;0.60;;;16.20;54.60;;;19.55;100.00;-21211.59;4994908;28;20420;-71
2021/03/29 08:20:54;;;;;;;0.80;0.63;;;16.10;55.90;;;18.80;100.00;-21191.63;4994123;28;20413;-72
2021/03/29 08:23:47;;;;;;;0.80;0.60;;;15.90;55.40;;;18.28;100.00;-21177.66;5005287;28;20800;-71
2021/03/29 08:26:21;;;;;;;0.70;0.60;;;15.50;55.30;;;19.40;100.00;-21207.63;4996272;28;20429;-72
2021/03/29 08:29:30;;;;;;;0.70;0.60;;;15.90;57.20;;;19.91;100.00;-21221.28;4995100;28;20456;-73
2021/03/29 08:32:15;;;;;;;0.70;0.60;;;16.80;55.10;;;20.56;100.00;-21238.66;4993868;28;21297;-72
2021/03/29 08:34:53;;;;;;;3.13;2.23;;;16.60;50.60;;;20.17;100.00;-21228.13;4997176;28;20989;-73
2021/03/29 08:37:25;;;;;;;0.80;0.60;;;17.10;53.80;;;20.26;100.00;-21230.59;4998078;28;20442;-72
2021/03/29 08:40:00;;;;;;;0.70;0.50;;;16.90;48.10;;;20.61;100.00;-21240.00;4994786;28;20534;-72
2021/03/29 08:42:31;;;;;;;0.80;0.80;;;17.00;49.70;;;20.53;100.00;-21237.81;4998629;28;20433;-73
2021/03/29 08:45:01;;;;;;;0.70;0.60;;;17.20;47.10;;;20.66;100.00;-21241.38;4997325;28;21018;-74
2021/03/29 08:47:29;;;;;;;0.70;0.50;;;17.60;49.90;;;22.12;100.00;-21280.25;5002921;28;20464;-73
2021/03/29 08:49:58;;;;;;;0.70;0.50;;;17.90;44.60;;;22.31;100.00;-21285.28;4998549;28;20513;-72
2021/03/29 08:52:37;;;;;;;0.77;0.57;;;18.40;44.00;;;22.08;100.00;-21279.28;4995213;28;20469;-72
2021/03/29 08:55:07;;;;;;;0.70;0.50;;;18.20;44.50;;;22.74;100.00;-21296.72;4990891;28;20529;-72
2021/03/29 08:57:35;;;;;;;0.70;0.50;;;18.90;47.90;;;21.66;100.00;-21268.13;4992174;28;20497;-72
2021/03/29 09:00:09;;;;;;;0.90;0.60;;;18.90;41.40;;;22.96;100.00;-21302.56;4993079;28;20427;-72
2021/03/29 09:02:37;;;;;;;0.70;0.50;;;18.60;42.30;;;23.90;100.00;-21327.59;4992196;28;20427;-72
2021/03/29 09:05:09;;;;;;;0.70;0.50;;;18.80;41.20;;;21.60;100.00;-21266.34;4992558;28;20411;-73
2021/03/29 09:07:44;;;;;;;0.70;0.50;;;19.00;38.30;;;21.55;100.00;-21265.13;4991448;28;20631;-72
2021/03/29 09:10:20;;;;;;;0.70;0.60;;;19.00;36.90;;;22.21;100.00;-21282.56;4992740;28;20480;-73
2021/03/29 09:12:55;;;;;;;0.70;0.50;;;19.70;37.60;;;21.97;100.00;-21276.28;4992857;28;20545;-72
2021/03/29 09:15:23;;;;;;;0.70;0.50;;;19.30;32.60;;;23.21;100.00;-21309.25;4994278;28;20428;-72
2021/03/29 09:17:59;;;;;;;0.80;0.70;;;19.60;29.90;;;23.13;100.00;-21307.34;4994290;28;20419;-73
2021/03/29 09:20:29;;;;;;;0.70;0.50;;;19.60;28.70;;;22.45;100.00;-21289.09;4992146;28;20453;-74
2021/03/29 09:22:57;;;;;;;4.40;0.83;;;19.80;26.40;;;22.74;100.00;-21296.84;4993964;28;20477;-73
2021/03/29 09:25:38;;;;;;;0.70;0.50;;;20.00;22.40;;;24.83;100.00;-21352.56;4994285;28;20415;-73
2021/03/29 09:28:16;;;;;;;0.80;0.60;;;19.80;18.90;;;24.21;95.74;-21335.88;4992558;28;20431;-72
2021/03/29 09:30:48;;;;;;;0.70;0.50;;;20.00;14.90;;;24.61;95.27;-21346.47;4994450;28;20903;-72
2021/03/29 09:33:16;;;;;;;0.70;0.50;;;20.30;13.10;;;25.80;89.15;-21378.19;4993930;28;20450;-72
2021/03/29 09:35:44;;;;;;;1.23;0.70;;;20.10;10.30;;;23.78;85.54;-21324.59;4993425;28;20915;-73
2021/03/29 09:38:12;;;;;;;0.70;0.50;;;19.90;7.70;;;24.14;87.56;-21334.09;5009214;28;20434;-71
2021/03/29 09:40:40;;;;;;;0.70;0.57;;;20.10;8.00;;;24.27;89.40;-21337.50;4994221;28;20423;-72
2021/03/29 09:43:21;;;;;;;0.80;0.67;;;20.90;9.30;;;25.71;83.89;-21375.75;4993380;28;20433;-72
2021/03/29 09:45:49;;;;;;;0.70;0.50;;;20.90;6.00;;;26.71;77.32;-21402.31;4998902;28;21009;-72
2021/03/29 09:48:16;;;;;;;0.80;0.73;;;20.40;1.80;;;26.35;76.83;-21392.69;5008378;28;20453;-72
2021/03/29 09:50:46;;;;;;;0.70;0.50;;;20.60;2.00;;;25.35;77.63;-21366.28;4995827;28;20921;-72
2021/03/29 09:53:18;;;;;;;0.70;0.50;;;21.40;2.90;;;25.77;75.97;-21377.38;4993907;28;20415;-71
2021/03/29 09:55:49;;;;;;;0.70;0.50;;;20.90;1.00;;;26.42;74.40;-21394.72;4993997;28;20750;-71
2021/03/29 09:58:27;;;;;;;0.77;0.60;;;20.80;1.00;;;26.40;71.52;-21394.19;4993649;28;20435;-72
2021/03/29 10:00:57;;;;;;;0.70;0.50;;;20.80;1.00;;;25.33;68.63;-21365.72;4992432;28;20449;-75
2021/03/29 10:03:52;;;;;;;0.70;0.50;;;21.00;1.00;;;24.59;71.81;-21346.19;4991869;28;20462;-73
2021/03/29 10:06:21;;;;;;;0.70;0.50;;;21.30;1.00;;;25.90;67.88;-21380.91;4990039;28;20446;-73
2021/03/29 10:09:00;;;;;;;0.70;0.50;;;21.50;1.00;;;26.09;65.91;-21385.78;4995007;28;20426;-72
2021/03/29 10:11:43;;;;;;;0.70;0.50;;;21.30;1.00;;;26.54;65.49;-21397.69;5010571;28;20972;-72
2021/03/29 10:14:15;;;;;;;0.80;0.60;;;21.00;1.00;;;26.47;63.29;-21396.09;4997540;28;20802;-72
2021/03/29 10:16:44;;;;;;;1.10;0.70;;;21.20;1.00;;;25.57;64.66;-21371.97;4996859;28;20465;-72
2021/03/29 10:19:14;;;;;;;0.70;0.50;;;20.90;1.00;;;25.24;64.89;-21363.28;4996824;28;20470;-73
2021/03/29 10:22:08;;;;;;;0.70;0.50;;;21.20;1.00;;;25.85;61.60;-21379.56;4995815;28;20450;-73
2021/03/29 10:24:37;;;;;;;0.70;0.50;;;21.40;1.00;;;25.14;63.28;-21360.56;4995816;28;21010;-72
2021/03/29 10:27:06;;;;;;;0.70;0.50;;;21.10;1.00;;;25.43;61.71;-21368.31;4995011;28;20866;-71
2021/03/29 10:29:37;;;;;;;0.70;0.50;;;21.20;1.00;;;25.79;63.95;-21377.94;4995920;28;20468;-72
2021/03/29 10:32:08;;;;;;;0.70;0.50;;;22.10;1.00;;;26.28;60.21;-21390.94;4996851;28;20862;-72
2021/03/29 10:34:38;;;;;;;0.70;0.50;;;22.10;1.00;;;26.22;60.99;-21389.44;4996890;28;20546;-72